sensor_id;sensor_type;location;lat;lon;timestamp;P1;durP1;ratioP1;P2;durP2;ratioP2
49826;SDS011;35715;51.570;6.036;2024-02-21T00:02:19;19.05;;;9.60;;
49826;SDS011;35715;51.570;6.036;2024-02-21T00:04:47;22.17;;;9.20;;
49826;SDS011;35715;51.570;6.036;2024-02-21T00:07:12;21.80;;;9.65;;
49826;SDS011;35715;51.570;6.036;2024-02-21T00:09:37;23.30;;;8.85;;
49826;SDS011;35715;51.570;6.036;2024-02-21T00:12:06;23.92;;;9.52;;
49826;SDS011;35715;51.570;6.036;2024-02-21T00:14:34;23.27;;;9.00;;
49826;SDS011;35715;51.570;6.036;2024-02-21T00:16:59;19.60;;;9.18;;
49826;SDS011;35715;51.570;6.036;2024-02-21T00:19:25;17.75;;;8.80;;
49826;SDS011;35715;51.570;6.036;2024-02-21T00:21:50;20.00;;;9.20;;
49826;SDS011;35715;51.570;6.036;2024-02-21T00:24:15;21.27;;;10.07;;
49826;SDS011;35715;51.570;6.036;2024-02-21T00:26:41;29.60;;;11.20;;
49826;SDS011;35715;51.570;6.036;2024-02-21T00:29:06;33.72;;;11.98;;
49826;SDS011;35715;51.570;6.036;2024-02-21T00:31:31;19.15;;;9.90;;
49826;SDS011;35715;51.570;6.036;2024-02-21T00:33:57;20.08;;;9.02;;
49826;SDS011;35715;51.570;6.036;2024-02-21T00:36:23;17.08;;;9.48;;
49826;SDS011;35715;51.570;6.036;2024-02-21T00:38:48;21.08;;;9.43;;
49826;SDS011;35715;51.570;6.036;2024-02-21T00:41:14;19.48;;;9.90;;
49826;SDS011;35715;51.570;6.036;2024-02-21T00:43:39;16.00;;;9.10;;
49826;SDS011;35715;51.570;6.036;2024-02-21T00:46:05;18.90;;;9.35;;
49826;SDS011;35715;51.570;6.036;2024-02-21T00:48:31;27.48;;;10.68;;
49826;SDS011;35715;51.570;6.036;2024-02-21T00:50:56;30.95;;;10.27;;
49826;SDS011;35715;51.570;6.036;2024-02-21T00:53:22;22.92;;;10.05;;
49826;SDS011;35715;51.570;6.036;2024-02-21T00:55:47;19.75;;;10.35;;
49826;SDS011;35715;51.570;6.036;2024-02-21T00:58:12;15.60;;;8.48;;
49826;SDS011;35715;51.570;6.036;2024-02-21T01:00:38;18.40;;;9.65;;
49826;SDS011;35715;51.570;6.036;2024-02-21T01:03:03;18.30;;;10.30;;
49826;SDS011;35715;51.570;6.036;2024-02-21T01:05:28;22.42;;;9.80;;
49826;SDS011;35715;51.570;6.036;2024-02-21T01:07:54;21.75;;;8.18;;
49826;SDS011;35715;51.570;6.036;2024-02-21T01:10:21;27.35;;;9.15;;
49826;SDS011;35715;51.570;6.036;2024-02-21T01:12:46;19.77;;;9.13;;
49826;SDS011;35715;51.570;6.036;2024-02-21T01:15:11;19.00;;;9.50;;
49826;SDS011;35715;51.570;6.036;2024-02-21T01:17:37;19.10;;;9.43;;
49826;SDS011;35715;51.570;6.036;2024-02-21T01:20:03;18.73;;;8.82;;
49826;SDS011;35715;51.570;6.036;2024-02-21T01:22:30;18.70;;;8.73;;
49826;SDS011;35715;51.570;6.036;2024-02-21T01:24:56;14.52;;;8.52;;
49826;SDS011;35715;51.570;6.036;2024-02-21T01:27:21;18.23;;;9.20;;
49826;SDS011;35715;51.570;6.036;2024-02-21T01:29:46;20.58;;;8.20;;
49826;SDS011;35715;51.570;6.036;2024-02-21T01:32:14;15.88;;;8.48;;
49826;SDS011;35715;51.570;6.036;2024-02-21T01:34:40;20.40;;;9.20;;
49826;SDS011;35715;51.570;6.036;2024-02-21T01:37:05;22.30;;;9.75;;
49826;SDS011;35715;51.570;6.036;2024-02-21T01:39:32;20.58;;;9.93;;
49826;SDS011;35715;51.570;6.036;2024-02-21T01:41:58;22.05;;;10.88;;
49826;SDS011;35715;51.570;6.036;2024-02-21T01:44:23;23.25;;;9.10;;
49826;SDS011;35715;51.570;6.036;2024-02-21T01:46:49;13.90;;;7.95;;
49826;SDS011;35715;51.570;6.036;2024-02-21T01:49:16;21.48;;;9.48;;
49826;SDS011;35715;51.570;6.036;2024-02-21T01:51:41;16.80;;;7.82;;
49826;SDS011;35715;51.570;6.036;2024-02-21T01:54:07;19.48;;;10.18;;
49826;SDS011;35715;51.570;6.036;2024-02-21T01:56:33;13.90;;;7.05;;
49826;SDS011;35715;51.570;6.036;2024-02-21T01:58:59;20.70;;;8.05;;
49826;SDS011;35715;51.570;6.036;2024-02-21T02:01:25;20.05;;;9.20;;
49826;SDS011;35715;51.570;6.036;2024-02-21T02:03:50;14.98;;;7.93;;
49826;SDS011;35715;51.570;6.036;2024-02-21T02:06:16;19.35;;;8.95;;
49826;SDS011;35715;51.570;6.036;2024-02-21T02:08:41;17.90;;;7.63;;
49826;SDS011;35715;51.570;6.036;2024-02-21T02:11:08;16.42;;;8.95;;
49826;SDS011;35715;51.570;6.036;2024-02-21T02:13:34;19.35;;;8.45;;
49826;SDS011;35715;51.570;6.036;2024-02-21T02:15:59;18.02;;;8.27;;
49826;SDS011;35715;51.570;6.036;2024-02-21T02:18:25;14.15;;;6.78;;
49826;SDS011;35715;51.570;6.036;2024-02-21T02:20:50;15.57;;;6.88;;
49826;SDS011;35715;51.570;6.036;2024-02-21T02:23:30;14.32;;;7.68;;
49826;SDS011;35715;51.570;6.036;2024-02-21T02:25:56;20.83;;;9.10;;
49826;SDS011;35715;51.570;6.036;2024-02-21T02:28:22;29.77;;;9.63;;
49826;SDS011;35715;51.570;6.036;2024-02-21T02:30:48;25.75;;;9.13;;
49826;SDS011;35715;51.570;6.036;2024-02-21T02:33:14;20.77;;;8.85;;
49826;SDS011;35715;51.570;6.036;2024-02-21T02:35:40;18.52;;;8.50;;
49826;SDS011;35715;51.570;6.036;2024-02-21T02:38:05;20.20;;;8.70;;
49826;SDS011;35715;51.570;6.036;2024-02-21T02:40:32;26.20;;;9.98;;
49826;SDS011;35715;51.570;6.036;2024-02-21T02:42:59;24.38;;;9.38;;
49826;SDS011;35715;51.570;6.036;2024-02-21T02:45:24;17.40;;;8.90;;
49826;SDS011;35715;51.570;6.036;2024-02-21T02:47:51;19.30;;;8.85;;
49826;SDS011;35715;51.570;6.036;2024-02-21T02:50:20;13.75;;;8.32;;
49826;SDS011;35715;51.570;6.036;2024-02-21T02:52:45;19.92;;;9.43;;
49826;SDS011;35715;51.570;6.036;2024-02-21T02:55:11;15.88;;;8.15;;
49826;SDS011;35715;51.570;6.036;2024-02-21T02:57:36;13.88;;;8.52;;
49826;SDS011;35715;51.570;6.036;2024-02-21T03:00:01;16.85;;;8.05;;
49826;SDS011;35715;51.570;6.036;2024-02-21T03:02:27;16.95;;;9.85;;
49826;SDS011;35715;51.570;6.036;2024-02-21T03:04:53;17.98;;;8.25;;
49826;SDS011;35715;51.570;6.036;2024-02-21T03:07:19;21.38;;;9.75;;
49826;SDS011;35715;51.570;6.036;2024-02-21T03:09:45;13.95;;;7.72;;
49826;SDS011;35715;51.570;6.036;2024-02-21T03:12:11;16.17;;;8.50;;
49826;SDS011;35715;51.570;6.036;2024-02-21T03:14:36;22.80;;;9.20;;
49826;SDS011;35715;51.570;6.036;2024-02-21T03:17:02;15.85;;;7.47;;
49826;SDS011;35715;51.570;6.036;2024-02-21T03:19:28;21.02;;;9.38;;
49826;SDS011;35715;51.570;6.036;2024-02-21T03:21:56;19.15;;;11.18;;
49826;SDS011;35715;51.570;6.036;2024-02-21T03:24:27;15.73;;;8.55;;
49826;SDS011;35715;51.570;6.036;2024-02-21T03:26:56;15.98;;;8.30;;
49826;SDS011;35715;51.570;6.036;2024-02-21T03:29:21;15.95;;;9.07;;
49826;SDS011;35715;51.570;6.036;2024-02-21T03:31:47;15.82;;;9.60;;
49826;SDS011;35715;51.570;6.036;2024-02-21T03:34:12;19.10;;;10.18;;
49826;SDS011;35715;51.570;6.036;2024-02-21T03:36:37;16.40;;;8.32;;
49826;SDS011;35715;51.570;6.036;2024-02-21T03:39:03;18.58;;;8.40;;
49826;SDS011;35715;51.570;6.036;2024-02-21T03:41:30;16.75;;;8.50;;
49826;SDS011;35715;51.570;6.036;2024-02-21T03:43:56;17.02;;;9.05;;
49826;SDS011;35715;51.570;6.036;2024-02-21T03:46:21;27.05;;;11.50;;
49826;SDS011;35715;51.570;6.036;2024-02-21T03:48:46;15.90;;;9.05;;
49826;SDS011;35715;51.570;6.036;2024-02-21T03:51:12;17.38;;;8.82;;
49826;SDS011;35715;51.570;6.036;2024-02-21T03:53:37;20.00;;;9.13;;
49826;SDS011;35715;51.570;6.036;2024-02-21T03:56:06;12.63;;;7.57;;
49826;SDS011;35715;51.570;6.036;2024-02-21T03:58:32;23.23;;;8.27;;
49826;SDS011;35715;51.570;6.036;2024-02-21T04:00:59;14.93;;;7.90;;
49826;SDS011;35715;51.570;6.036;2024-02-21T04:03:25;20.45;;;9.82;;
49826;SDS011;35715;51.570;6.036;2024-02-21T04:05:51;17.70;;;9.38;;
49826;SDS011;35715;51.570;6.036;2024-02-21T04:08:16;20.05;;;10.30;;
49826;SDS011;35715;51.570;6.036;2024-02-21T04:10:42;14.52;;;8.27;;
49826;SDS011;35715;51.570;6.036;2024-02-21T04:13:07;19.67;;;9.77;;
49826;SDS011;35715;51.570;6.036;2024-02-21T04:15:32;15.55;;;8.73;;
49826;SDS011;35715;51.570;6.036;2024-02-21T04:17:58;13.68;;;8.63;;
49826;SDS011;35715;51.570;6.036;2024-02-21T04:20:23;15.80;;;10.13;;
49826;SDS011;35715;51.570;6.036;2024-02-21T04:22:51;15.48;;;8.32;;
49826;SDS011;35715;51.570;6.036;2024-02-21T04:25:20;15.70;;;10.20;;
49826;SDS011;35715;51.570;6.036;2024-02-21T04:27:45;17.88;;;9.50;;
49826;SDS011;35715;51.570;6.036;2024-02-21T04:30:11;21.60;;;9.40;;
49826;SDS011;35715;51.570;6.036;2024-02-21T04:32:38;17.33;;;11.00;;
49826;SDS011;35715;51.570;6.036;2024-02-21T04:35:04;18.98;;;9.05;;
49826;SDS011;35715;51.570;6.036;2024-02-21T04:37:30;12.45;;;9.18;;
49826;SDS011;35715;51.570;6.036;2024-02-21T04:39:56;14.73;;;9.20;;
49826;SDS011;35715;51.570;6.036;2024-02-21T04:42:21;20.80;;;8.65;;
49826;SDS011;35715;51.570;6.036;2024-02-21T04:44:46;20.67;;;9.80;;
49826;SDS011;35715;51.570;6.036;2024-02-21T04:47:12;20.17;;;9.30;;
49826;SDS011;35715;51.570;6.036;2024-02-21T04:49:38;18.13;;;11.32;;
49826;SDS011;35715;51.570;6.036;2024-02-21T04:52:06;13.38;;;9.25;;
49826;SDS011;35715;51.570;6.036;2024-02-21T04:54:32;19.95;;;9.43;;
49826;SDS011;35715;51.570;6.036;2024-02-21T04:56:57;17.70;;;8.82;;
49826;SDS011;35715;51.570;6.036;2024-02-21T04:59:22;15.75;;;9.68;;
49826;SDS011;35715;51.570;6.036;2024-02-21T05:01:48;19.50;;;10.07;;
49826;SDS011;35715;51.570;6.036;2024-02-21T05:04:13;16.42;;;9.15;;
49826;SDS011;35715;51.570;6.036;2024-02-21T05:06:41;13.05;;;8.20;;
49826;SDS011;35715;51.570;6.036;2024-02-21T05:09:10;12.80;;;7.95;;
49826;SDS011;35715;51.570;6.036;2024-02-21T05:11:35;16.60;;;8.93;;
49826;SDS011;35715;51.570;6.036;2024-02-21T05:14:01;13.95;;;8.65;;
49826;SDS011;35715;51.570;6.036;2024-02-21T05:16:27;18.13;;;8.05;;
49826;SDS011;35715;51.570;6.036;2024-02-21T05:18:53;14.82;;;7.43;;
49826;SDS011;35715;51.570;6.036;2024-02-21T05:21:18;14.07;;;9.07;;
49826;SDS011;35715;51.570;6.036;2024-02-21T05:23:44;24.23;;;10.20;;
49826;SDS011;35715;51.570;6.036;2024-02-21T05:26:09;15.38;;;8.82;;
49826;SDS011;35715;51.570;6.036;2024-02-21T05:28:35;24.00;;;9.15;;
49826;SDS011;35715;51.570;6.036;2024-02-21T05:31:03;14.85;;;8.10;;
49826;SDS011;35715;51.570;6.036;2024-02-21T05:33:28;20.60;;;9.38;;
49826;SDS011;35715;51.570;6.036;2024-02-21T05:35:55;18.83;;;8.98;;
49826;SDS011;35715;51.570;6.036;2024-02-21T05:38:20;16.02;;;8.75;;
49826;SDS011;35715;51.570;6.036;2024-02-21T05:40:45;12.40;;;7.68;;
49826;SDS011;35715;51.570;6.036;2024-02-21T05:43:11;22.35;;;8.38;;
49826;SDS011;35715;51.570;6.036;2024-02-21T05:45:36;12.23;;;7.80;;
49826;SDS011;35715;51.570;6.036;2024-02-21T05:48:02;14.93;;;8.48;;
49826;SDS011;35715;51.570;6.036;2024-02-21T05:50:29;13.90;;;6.95;;
49826;SDS011;35715;51.570;6.036;2024-02-21T05:52:54;13.00;;;7.28;;
49826;SDS011;35715;51.570;6.036;2024-02-21T05:55:21;13.68;;;7.70;;
49826;SDS011;35715;51.570;6.036;2024-02-21T05:57:46;14.48;;;8.27;;
49826;SDS011;35715;51.570;6.036;2024-02-21T06:00:12;14.90;;;7.85;;
49826;SDS011;35715;51.570;6.036;2024-02-21T06:02:38;14.20;;;6.88;;
49826;SDS011;35715;51.570;6.036;2024-02-21T06:05:05;15.98;;;8.45;;
49826;SDS011;35715;51.570;6.036;2024-02-21T06:07:32;15.52;;;6.75;;
49826;SDS011;35715;51.570;6.036;2024-02-21T06:09:57;16.13;;;8.07;;
49826;SDS011;35715;51.570;6.036;2024-02-21T06:12:23;13.10;;;8.00;;
49826;SDS011;35715;51.570;6.036;2024-02-21T06:14:48;13.23;;;8.68;;
49826;SDS011;35715;51.570;6.036;2024-02-21T06:17:14;13.07;;;7.80;;
49826;SDS011;35715;51.570;6.036;2024-02-21T06:19:40;18.52;;;7.85;;
49826;SDS011;35715;51.570;6.036;2024-02-21T06:22:07;20.20;;;9.23;;
49826;SDS011;35715;51.570;6.036;2024-02-21T06:24:33;19.85;;;8.15;;
49826;SDS011;35715;51.570;6.036;2024-02-21T06:26:59;16.48;;;8.57;;
49826;SDS011;35715;51.570;6.036;2024-02-21T06:29:24;17.83;;;9.32;;
49826;SDS011;35715;51.570;6.036;2024-02-21T06:31:49;12.23;;;7.20;;
49826;SDS011;35715;51.570;6.036;2024-02-21T06:34:18;12.00;;;8.02;;
49826;SDS011;35715;51.570;6.036;2024-02-21T06:36:44;16.98;;;7.88;;
49826;SDS011;35715;51.570;6.036;2024-02-21T06:39:10;21.40;;;10.07;;
49826;SDS011;35715;51.570;6.036;2024-02-21T06:41:36;15.32;;;9.27;;
49826;SDS011;35715;51.570;6.036;2024-02-21T06:44:02;12.93;;;7.50;;
49826;SDS011;35715;51.570;6.036;2024-02-21T06:46:28;14.43;;;6.63;;
49826;SDS011;35715;51.570;6.036;2024-02-21T06:48:54;17.02;;;7.97;;
49826;SDS011;35715;51.570;6.036;2024-02-21T06:51:22;12.60;;;7.80;;
49826;SDS011;35715;51.570;6.036;2024-02-21T06:53:48;17.73;;;8.32;;
49826;SDS011;35715;51.570;6.036;2024-02-21T06:56:13;14.70;;;8.32;;
49826;SDS011;35715;51.570;6.036;2024-02-21T06:58:39;15.43;;;8.55;;
49826;SDS011;35715;51.570;6.036;2024-02-21T07:01:07;16.17;;;9.77;;
49826;SDS011;35715;51.570;6.036;2024-02-21T07:03:34;20.38;;;8.20;;
49826;SDS011;35715;51.570;6.036;2024-02-21T07:05:59;14.55;;;8.18;;
49826;SDS011;35715;51.570;6.036;2024-02-21T07:08:24;15.00;;;8.25;;
49826;SDS011;35715;51.570;6.036;2024-02-21T07:10:50;16.40;;;8.20;;
49826;SDS011;35715;51.570;6.036;2024-02-21T07:13:15;14.98;;;8.23;;
49826;SDS011;35715;51.570;6.036;2024-02-21T07:15:41;15.93;;;8.27;;
49826;SDS011;35715;51.570;6.036;2024-02-21T07:18:06;16.88;;;8.10;;
49826;SDS011;35715;51.570;6.036;2024-02-21T07:20:32;15.32;;;8.27;;
49826;SDS011;35715;51.570;6.036;2024-02-21T07:23:06;13.15;;;7.75;;
49826;SDS011;35715;51.570;6.036;2024-02-21T07:25:31;20.95;;;8.82;;
49826;SDS011;35715;51.570;6.036;2024-02-21T07:27:59;16.98;;;8.68;;
49826;SDS011;35715;51.570;6.036;2024-02-21T07:30:24;15.45;;;9.57;;
49826;SDS011;35715;51.570;6.036;2024-02-21T07:32:50;16.85;;;6.80;;
49826;SDS011;35715;51.570;6.036;2024-02-21T07:35:17;15.77;;;7.35;;
49826;SDS011;35715;51.570;6.036;2024-02-21T07:37:42;14.57;;;7.95;;
49826;SDS011;35715;51.570;6.036;2024-02-21T07:40:14;14.45;;;8.48;;
49826;SDS011;35715;51.570;6.036;2024-02-21T07:42:40;12.20;;;7.10;;
49826;SDS011;35715;51.570;6.036;2024-02-21T07:45:07;23.25;;;10.55;;
49826;SDS011;35715;51.570;6.036;2024-02-21T07:47:34;18.05;;;9.20;;
49826;SDS011;35715;51.570;6.036;2024-02-21T07:49:59;11.98;;;8.23;;
49826;SDS011;35715;51.570;6.036;2024-02-21T07:52:28;14.48;;;8.23;;
49826;SDS011;35715;51.570;6.036;2024-02-21T07:54:53;17.73;;;9.73;;
49826;SDS011;35715;51.570;6.036;2024-02-21T07:57:18;14.63;;;8.27;;
49826;SDS011;35715;51.570;6.036;2024-02-21T07:59:44;14.35;;;7.55;;
49826;SDS011;35715;51.570;6.036;2024-02-21T08:02:09;11.00;;;7.20;;
49826;SDS011;35715;51.570;6.036;2024-02-21T08:04:35;16.33;;;9.25;;
49826;SDS011;35715;51.570;6.036;2024-02-21T08:07:09;13.48;;;7.80;;
49826;SDS011;35715;51.570;6.036;2024-02-21T08:09:35;12.68;;;7.40;;
49826;SDS011;35715;51.570;6.036;2024-02-21T08:12:02;13.90;;;7.93;;
49826;SDS011;35715;51.570;6.036;2024-02-21T08:14:29;10.40;;;8.05;;
49826;SDS011;35715;51.570;6.036;2024-02-21T08:16:54;9.50;;;7.20;;
49826;SDS011;35715;51.570;6.036;2024-02-21T08:19:20;12.93;;;7.13;;
49826;SDS011;35715;51.570;6.036;2024-02-21T08:21:46;13.52;;;8.07;;
49826;SDS011;35715;51.570;6.036;2024-02-21T08:24:14;11.10;;;7.03;;
49826;SDS011;35715;51.570;6.036;2024-02-21T08:26:42;10.63;;;7.63;;
49826;SDS011;35715;51.570;6.036;2024-02-21T08:29:11;12.18;;;7.38;;
49826;SDS011;35715;51.570;6.036;2024-02-21T08:31:37;10.75;;;6.78;;
49826;SDS011;35715;51.570;6.036;2024-02-21T08:34:02;15.27;;;6.90;;
49826;SDS011;35715;51.570;6.036;2024-02-21T08:36:30;16.55;;;7.82;;
49826;SDS011;35715;51.570;6.036;2024-02-21T08:39:01;11.57;;;6.95;;
49826;SDS011;35715;51.570;6.036;2024-02-21T08:41:30;24.17;;;8.77;;
49826;SDS011;35715;51.570;6.036;2024-02-21T08:43:56;15.77;;;7.50;;
49826;SDS011;35715;51.570;6.036;2024-02-21T08:46:24;12.52;;;6.38;;
49826;SDS011;35715;51.570;6.036;2024-02-21T08:48:50;9.88;;;6.25;;
49826;SDS011;35715;51.570;6.036;2024-02-21T08:51:19;8.98;;;6.35;;
49826;SDS011;35715;51.570;6.036;2024-02-21T08:53:45;14.25;;;6.15;;
49826;SDS011;35715;51.570;6.036;2024-02-21T08:56:11;11.93;;;6.53;;
49826;SDS011;35715;51.570;6.036;2024-02-21T08:58:37;12.23;;;6.82;;
49826;SDS011;35715;51.570;6.036;2024-02-21T09:01:04;9.18;;;5.22;;
49826;SDS011;35715;51.570;6.036;2024-02-21T09:03:34;12.80;;;6.25;;
49826;SDS011;35715;51.570;6.036;2024-02-21T09:06:04;14.25;;;6.63;;
49826;SDS011;35715;51.570;6.036;2024-02-21T09:08:30;17.10;;;5.22;;
49826;SDS011;35715;51.570;6.036;2024-02-21T09:10:55;10.25;;;4.60;;
49826;SDS011;35715;51.570;6.036;2024-02-21T09:13:20;9.05;;;4.97;;
49826;SDS011;35715;51.570;6.036;2024-02-21T09:15:47;9.57;;;5.05;;
49826;SDS011;35715;51.570;6.036;2024-02-21T09:18:13;13.10;;;6.20;;
49826;SDS011;35715;51.570;6.036;2024-02-21T09:20:38;9.93;;;5.97;;
49826;SDS011;35715;51.570;6.036;2024-02-21T09:23:03;28.30;;;5.70;;
49826;SDS011;35715;51.570;6.036;2024-02-21T09:25:29;12.00;;;5.22;;
49826;SDS011;35715;51.570;6.036;2024-02-21T09:27:54;9.20;;;3.83;;
49826;SDS011;35715;51.570;6.036;2024-02-21T09:30:20;9.05;;;4.75;;
49826;SDS011;35715;51.570;6.036;2024-02-21T09:32:45;6.88;;;3.55;;
49826;SDS011;35715;51.570;6.036;2024-02-21T09:35:12;8.70;;;5.55;;
49826;SDS011;35715;51.570;6.036;2024-02-21T09:37:38;7.22;;;5.38;;
49826;SDS011;35715;51.570;6.036;2024-02-21T09:40:04;8.05;;;4.47;;
49826;SDS011;35715;51.570;6.036;2024-02-21T09:42:39;11.90;;;5.22;;
49826;SDS011;35715;51.570;6.036;2024-02-21T09:45:12;8.65;;;5.88;;
49826;SDS011;35715;51.570;6.036;2024-02-21T09:51:05;10.88;;;6.00;;
49826;SDS011;35715;51.570;6.036;2024-02-21T09:53:32;15.50;;;6.00;;
49826;SDS011;35715;51.570;6.036;2024-02-21T09:56:02;13.18;;;6.15;;
49826;SDS011;35715;51.570;6.036;2024-02-21T09:58:28;14.48;;;6.28;;
49826;SDS011;35715;51.570;6.036;2024-02-21T10:00:54;7.65;;;5.15;;
49826;SDS011;35715;51.570;6.036;2024-02-21T10:03:19;8.65;;;5.57;;
49826;SDS011;35715;51.570;6.036;2024-02-21T10:05:47;10.68;;;4.88;;
49826;SDS011;35715;51.570;6.036;2024-02-21T10:08:15;8.75;;;6.05;;
49826;SDS011;35715;51.570;6.036;2024-02-21T10:10:43;18.30;;;6.70;;
49826;SDS011;35715;51.570;6.036;2024-02-21T10:13:10;14.02;;;6.40;;
49826;SDS011;35715;51.570;6.036;2024-02-21T10:15:36;15.48;;;8.15;;
49826;SDS011;35715;51.570;6.036;2024-02-21T10:18:02;9.38;;;5.70;;
49826;SDS011;35715;51.570;6.036;2024-02-21T10:20:32;5.78;;;5.18;;
49826;SDS011;35715;51.570;6.036;2024-02-21T10:23:02;10.60;;;4.82;;
49826;SDS011;35715;51.570;6.036;2024-02-21T10:25:32;12.93;;;5.40;;
49826;SDS011;35715;51.570;6.036;2024-02-21T10:27:59;13.30;;;7.18;;
49826;SDS011;35715;51.570;6.036;2024-02-21T10:30:24;13.20;;;5.93;;
49826;SDS011;35715;51.570;6.036;2024-02-21T10:32:50;8.40;;;5.63;;
49826;SDS011;35715;51.570;6.036;2024-02-21T10:35:25;18.42;;;6.40;;
49826;SDS011;35715;51.570;6.036;2024-02-21T10:37:55;11.63;;;6.20;;
49826;SDS011;35715;51.570;6.036;2024-02-21T10:40:22;14.25;;;5.60;;
49826;SDS011;35715;51.570;6.036;2024-02-21T10:42:58;8.27;;;4.55;;
49826;SDS011;35715;51.570;6.036;2024-02-21T10:45:30;14.57;;;5.00;;
49826;SDS011;35715;51.570;6.036;2024-02-21T10:48:01;17.17;;;7.43;;
49826;SDS011;35715;51.570;6.036;2024-02-21T10:50:33;12.18;;;5.00;;
49826;SDS011;35715;51.570;6.036;2024-02-21T10:53:20;9.98;;;5.55;;
49826;SDS011;35715;51.570;6.036;2024-02-21T10:58:54;7.75;;;4.32;;
49826;SDS011;35715;51.570;6.036;2024-02-21T11:01:22;10.35;;;4.93;;
49826;SDS011;35715;51.570;6.036;2024-02-21T11:03:49;10.98;;;4.90;;
49826;SDS011;35715;51.570;6.036;2024-02-21T11:06:18;9.18;;;4.50;;
49826;SDS011;35715;51.570;6.036;2024-02-21T11:08:45;10.35;;;4.70;;
49826;SDS011;35715;51.570;6.036;2024-02-21T11:11:12;11.18;;;5.32;;
49826;SDS011;35715;51.570;6.036;2024-02-21T11:13:42;12.18;;;5.78;;
49826;SDS011;35715;51.570;6.036;2024-02-21T11:16:08;10.82;;;4.50;;
49826;SDS011;35715;51.570;6.036;2024-02-21T11:18:40;13.88;;;4.68;;
49826;SDS011;35715;51.570;6.036;2024-02-21T11:21:06;8.43;;;4.57;;
49826;SDS011;35715;51.570;6.036;2024-02-21T11:23:31;10.38;;;4.22;;
49826;SDS011;35715;51.570;6.036;2024-02-21T11:26:09;9.50;;;5.18;;
49826;SDS011;35715;51.570;6.036;2024-02-21T11:28:38;9.07;;;4.93;;
49826;SDS011;35715;51.570;6.036;2024-02-21T11:31:11;10.25;;;4.57;;
49826;SDS011;35715;51.570;6.036;2024-02-21T11:33:40;12.73;;;4.65;;
49826;SDS011;35715;51.570;6.036;2024-02-21T11:36:07;5.85;;;4.60;;
49826;SDS011;35715;51.570;6.036;2024-02-21T11:38:33;6.80;;;3.53;;
49826;SDS011;35715;51.570;6.036;2024-02-21T11:40:59;11.93;;;4.97;;
49826;SDS011;35715;51.570;6.036;2024-02-21T11:43:24;19.17;;;5.53;;
49826;SDS011;35715;51.570;6.036;2024-02-21T11:45:50;11.73;;;4.47;;
49826;SDS011;35715;51.570;6.036;2024-02-21T11:48:23;18.73;;;6.00;;
49826;SDS011;35715;51.570;6.036;2024-02-21T11:50:52;8.23;;;3.78;;
49826;SDS011;35715;51.570;6.036;2024-02-21T11:55:45;10.43;;;5.07;;
49826;SDS011;35715;51.570;6.036;2024-02-21T11:58:11;14.43;;;4.72;;
49826;SDS011;35715;51.570;6.036;2024-02-21T12:00:36;11.80;;;5.97;;
49826;SDS011;35715;51.570;6.036;2024-02-21T12:03:02;9.40;;;5.15;;
49826;SDS011;35715;51.570;6.036;2024-02-21T12:05:28;9.27;;;4.45;;
49826;SDS011;35715;51.570;6.036;2024-02-21T12:07:54;12.07;;;5.45;;
49826;SDS011;35715;51.570;6.036;2024-02-21T12:10:20;9.63;;;5.05;;
49826;SDS011;35715;51.570;6.036;2024-02-21T12:12:45;9.77;;;5.10;;
49826;SDS011;35715;51.570;6.036;2024-02-21T12:15:10;5.95;;;3.95;;
49826;SDS011;35715;51.570;6.036;2024-02-21T12:17:39;8.90;;;4.63;;
49826;SDS011;35715;51.570;6.036;2024-02-21T12:20:05;13.95;;;4.55;;
49826;SDS011;35715;51.570;6.036;2024-02-21T12:22:34;13.43;;;5.20;;
49826;SDS011;35715;51.570;6.036;2024-02-21T12:25:02;12.70;;;4.80;;
49826;SDS011;35715;51.570;6.036;2024-02-21T12:27:29;9.88;;;4.63;;
49826;SDS011;35715;51.570;6.036;2024-02-21T12:29:55;5.18;;;3.78;;
49826;SDS011;35715;51.570;6.036;2024-02-21T12:32:20;10.90;;;5.10;;
49826;SDS011;35715;51.570;6.036;2024-02-21T12:34:48;12.05;;;5.30;;
49826;SDS011;35715;51.570;6.036;2024-02-21T12:37:13;8.55;;;5.35;;
49826;SDS011;35715;51.570;6.036;2024-02-21T12:39:40;11.15;;;3.92;;
49826;SDS011;35715;51.570;6.036;2024-02-21T12:42:06;7.10;;;4.30;;
49826;SDS011;35715;51.570;6.036;2024-02-21T12:44:34;10.65;;;4.45;;
49826;SDS011;35715;51.570;6.036;2024-02-21T12:46:59;10.88;;;5.05;;
49826;SDS011;35715;51.570;6.036;2024-02-21T12:49:25;6.05;;;4.38;;
49826;SDS011;35715;51.570;6.036;2024-02-21T12:51:52;7.68;;;4.03;;
49826;SDS011;35715;51.570;6.036;2024-02-21T12:54:17;13.07;;;5.80;;
49826;SDS011;35715;51.570;6.036;2024-02-21T12:56:43;9.98;;;4.47;;
49826;SDS011;35715;51.570;6.036;2024-02-21T12:59:08;10.43;;;4.82;;
49826;SDS011;35715;51.570;6.036;2024-02-21T13:01:36;6.28;;;3.92;;
49826;SDS011;35715;51.570;6.036;2024-02-21T13:04:05;12.25;;;6.10;;
49826;SDS011;35715;51.570;6.036;2024-02-21T13:06:30;15.00;;;6.10;;
49826;SDS011;35715;51.570;6.036;2024-02-21T13:08:56;7.03;;;4.00;;
49826;SDS011;35715;51.570;6.036;2024-02-21T13:11:21;13.43;;;4.97;;
49826;SDS011;35715;51.570;6.036;2024-02-21T13:13:46;13.68;;;4.72;;
49826;SDS011;35715;51.570;6.036;2024-02-21T13:16:12;5.88;;;4.43;;
49826;SDS011;35715;51.570;6.036;2024-02-21T13:18:37;8.63;;;4.63;;
49826;SDS011;35715;51.570;6.036;2024-02-21T13:21:06;8.80;;;4.30;;
49826;SDS011;35715;51.570;6.036;2024-02-21T13:23:31;6.60;;;4.07;;
49826;SDS011;35715;51.570;6.036;2024-02-21T13:25:57;9.32;;;5.07;;
49826;SDS011;35715;51.570;6.036;2024-02-21T13:28:22;9.20;;;3.33;;
49826;SDS011;35715;51.570;6.036;2024-02-21T13:30:48;11.20;;;4.38;;
49826;SDS011;35715;51.570;6.036;2024-02-21T13:33:13;7.15;;;3.97;;
49826;SDS011;35715;51.570;6.036;2024-02-21T13:35:38;8.82;;;4.25;;
49826;SDS011;35715;51.570;6.036;2024-02-21T13:38:04;10.57;;;4.00;;
49826;SDS011;35715;51.570;6.036;2024-02-21T13:40:29;10.43;;;4.68;;
49826;SDS011;35715;51.570;6.036;2024-02-21T13:42:55;5.18;;;3.90;;
49826;SDS011;35715;51.570;6.036;2024-02-21T13:45:20;8.23;;;4.22;;
49826;SDS011;35715;51.570;6.036;2024-02-21T13:47:46;8.18;;;4.43;;
49826;SDS011;35715;51.570;6.036;2024-02-21T13:50:12;9.05;;;4.32;;
49826;SDS011;35715;51.570;6.036;2024-02-21T13:52:39;7.10;;;3.60;;
49826;SDS011;35715;51.570;6.036;2024-02-21T13:55:05;7.20;;;3.80;;
49826;SDS011;35715;51.570;6.036;2024-02-21T13:57:33;10.65;;;4.07;;
49826;SDS011;35715;51.570;6.036;2024-02-21T14:00:05;7.78;;;4.28;;
49826;SDS011;35715;51.570;6.036;2024-02-21T14:02:35;22.27;;;4.93;;
49826;SDS011;35715;51.570;6.036;2024-02-21T14:05:01;9.30;;;4.07;;
49826;SDS011;35715;51.570;6.036;2024-02-21T14:07:29;5.15;;;2.90;;
49826;SDS011;35715;51.570;6.036;2024-02-21T14:09:55;6.93;;;3.83;;
49826;SDS011;35715;51.570;6.036;2024-02-21T14:12:20;3.35;;;2.42;;
49826;SDS011;35715;51.570;6.036;2024-02-21T14:14:46;8.77;;;2.85;;
49826;SDS011;35715;51.570;6.036;2024-02-21T14:17:12;9.95;;;3.65;;
49826;SDS011;35715;51.570;6.036;2024-02-21T14:19:38;4.80;;;3.05;;
49826;SDS011;35715;51.570;6.036;2024-02-21T14:22:03;9.50;;;3.58;;
49826;SDS011;35715;51.570;6.036;2024-02-21T14:24:28;5.88;;;3.50;;
49826;SDS011;35715;51.570;6.036;2024-02-21T14:26:54;5.25;;;2.75;;
49826;SDS011;35715;51.570;6.036;2024-02-21T14:29:20;7.80;;;2.90;;
49826;SDS011;35715;51.570;6.036;2024-02-21T14:31:48;8.10;;;3.38;;
49826;SDS011;35715;51.570;6.036;2024-02-21T14:34:14;9.05;;;3.30;;
49826;SDS011;35715;51.570;6.036;2024-02-21T14:36:39;6.68;;;3.88;;
49826;SDS011;35715;51.570;6.036;2024-02-21T14:39:06;5.57;;;2.50;;
49826;SDS011;35715;51.570;6.036;2024-02-21T14:41:31;5.07;;;3.25;;